createdAt,value
2022-10-15T00:04:46.445Z,31.23
2022-10-15T00:09:52.700Z,33.63
2022-10-15T00:15:00.285Z,27.15
2022-10-15T00:20:09.895Z,22.60
2022-10-15T00:25:16.151Z,23.30
2022-10-15T00:30:23.525Z,39.63
2022-10-15T00:35:33.961Z,40.03
2022-10-15T00:40:43.683Z,42.53
2022-10-15T00:45:52.552Z,34.30
2022-10-15T00:51:02.740Z,30.08
2022-10-15T00:56:11.157Z,40.25
2022-10-15T01:01:18.884Z,42.30
2022-10-15T01:06:25.775Z,44.83
2022-10-15T01:11:43.000Z,42.45
2022-10-15T01:17:01.478Z,54.05
2022-10-15T01:22:12.511Z,49.20
2022-10-15T01:27:37.260Z,42.33
2022-10-15T01:32:58.800Z,42.67
2022-10-15T01:38:22.430Z,38.30
2022-10-15T01:43:37.379Z,38.35
2022-10-15T01:49:06.719Z,37.45
2022-10-15T01:54:19.592Z,32.83
2022-10-15T01:59:31.522Z,36.08
2022-10-15T02:04:40.141Z,32.08
2022-10-15T02:15:04.850Z,32.70
2022-10-15T02:20:19.885Z,36.10
2022-10-15T02:25:29.846Z,35.63
2022-10-15T02:30:42.231Z,33.38
2022-10-15T02:35:53.973Z,36.58
2022-10-15T02:46:09.185Z,35.85
2022-10-15T02:56:24.173Z,39.47
2022-10-15T03:01:31.010Z,35.13
2022-10-15T03:06:39.777Z,33.70
2022-10-15T03:11:46.049Z,22.47
2022-10-15T03:16:52.312Z,29.70
2022-10-15T03:22:00.575Z,30.65
2022-10-15T03:27:15.426Z,32.88
2022-10-15T03:32:21.979Z,30.45
2022-10-15T03:37:29.715Z,30.83
2022-10-15T03:42:36.520Z,39.92
2022-10-15T03:47:43.894Z,35.08
2022-10-15T03:52:51.610Z,37.25
2022-10-15T03:57:59.002Z,38.80
2022-10-15T04:03:06.109Z,38.50
2022-10-15T04:08:14.243Z,33.53
2022-10-15T04:13:20.499Z,32.10
2022-10-15T04:18:26.783Z,40.53
2022-10-15T04:23:36.990Z,36.00
2022-10-15T04:29:01.553Z,38.13
2022-10-15T04:34:09.155Z,40.05
2022-10-15T04:39:17.880Z,36.05
2022-10-15T04:44:27.778Z,31.30
2022-10-15T04:49:36.649Z,31.27
2022-10-15T04:54:51.112Z,38.58
2022-10-15T04:59:58.027Z,37.17
2022-10-15T05:05:13.480Z,39.10
2022-10-15T05:10:31.102Z,36.28
2022-10-15T05:15:43.562Z,36.88
2022-10-15T05:20:50.407Z,36.70
2022-10-15T05:26:03.846Z,39.03
2022-10-15T05:31:18.623Z,38.85
2022-10-15T05:36:27.625Z,41.42
2022-10-15T05:41:36.159Z,42.40
2022-10-15T05:46:44.686Z,42.05
2022-10-15T05:51:56.781Z,39.75
2022-10-15T05:57:23.146Z,37.58
2022-10-15T06:02:29.663Z,37.47
2022-10-15T06:07:36.235Z,37.95
2022-10-15T06:12:50.294Z,36.95
2022-10-15T06:17:56.461Z,37.45
2022-10-15T06:23:03.763Z,33.88
2022-10-15T06:28:11.916Z,37.78
2022-10-15T06:33:22.129Z,34.03
2022-10-15T06:38:28.498Z,35.65
2022-10-15T06:43:37.033Z,34.72
2022-10-15T06:48:43.620Z,35.00
2022-10-15T06:53:51.047Z,32.50
2022-10-15T06:58:58.764Z,35.85
2022-10-15T07:04:05.073Z,35.08
2022-10-15T07:09:11.505Z,36.00
2022-10-15T07:14:19.206Z,32.75
2022-10-15T07:19:25.380Z,28.42
2022-10-15T07:24:32.010Z,34.67
2022-10-15T07:29:39.989Z,31.98
2022-10-15T07:34:46.596Z,31.52
2022-10-15T07:39:56.196Z,27.33
2022-10-15T07:45:08.172Z,30.48
2022-10-15T07:50:14.431Z,26.23
2022-10-15T07:55:20.725Z,26.52
2022-10-15T08:00:28.617Z,24.10
2022-10-15T08:05:36.793Z,23.13
2022-10-15T08:10:43.295Z,22.43
2022-10-15T08:15:52.457Z,21.95
2022-10-15T08:21:02.214Z,23.40
2022-10-15T08:26:08.725Z,22.08
2022-10-15T08:31:16.327Z,24.95
2022-10-15T08:36:22.813Z,24.45
2022-10-15T08:41:39.276Z,19.98
2022-10-15T08:46:50.883Z,23.67
2022-10-15T08:52:10.143Z,22.73
2022-10-15T08:57:38.219Z,24.00
2022-10-15T09:02:59.099Z,24.38
2022-10-15T09:08:19.695Z,17.65
2022-10-15T09:13:32.445Z,21.77
2022-10-15T09:18:43.464Z,18.35
2022-10-15T09:23:50.627Z,15.68
2022-10-15T09:29:08.371Z,19.38
2022-10-15T09:34:27.517Z,17.02
2022-10-15T09:39:47.456Z,15.82
2022-10-15T09:44:56.249Z,18.15
2022-10-15T09:55:26.667Z,17.95
2022-10-15T10:01:00.235Z,16.50
2022-10-15T10:06:15.209Z,18.15
2022-10-15T10:11:28.798Z,16.00
2022-10-15T10:16:35.129Z,19.33
2022-10-15T10:21:46.309Z,24.65
2022-10-15T10:26:52.491Z,17.85
2022-10-15T10:31:58.923Z,15.18
2022-10-15T10:37:12.338Z,17.95
2022-10-15T10:43:11.900Z,20.83
2022-10-15T10:48:23.009Z,13.63
2022-10-15T10:53:30.734Z,12.30
2022-10-15T10:58:38.583Z,14.50
2022-10-15T11:03:48.883Z,17.08
2022-10-15T11:09:17.445Z,19.70
2022-10-15T11:14:33.964Z,13.40
2022-10-15T11:25:33.198Z,15.90
2022-10-15T11:30:53.456Z,15.10
2022-10-15T11:36:17.082Z,16.00
2022-10-15T11:41:43.659Z,14.82
2022-10-15T11:47:01.377Z,14.82
2022-10-15T11:52:27.758Z,13.90
2022-10-15T11:58:32.350Z,19.08
2022-10-15T12:03:48.130Z,16.13
2022-10-15T12:08:55.375Z,16.25
2022-10-15T12:14:14.921Z,17.42
2022-10-15T12:19:27.810Z,14.02
2022-10-15T12:24:56.839Z,15.93
2022-10-15T12:30:28.736Z,24.73
2022-10-15T12:35:40.480Z,16.50
2022-10-15T12:40:47.298Z,15.07
2022-10-15T12:45:57.873Z,18.17
2022-10-15T12:51:41.918Z,17.92
2022-10-15T12:56:48.477Z,15.85
2022-10-15T13:01:56.339Z,13.75
2022-10-15T13:07:05.555Z,14.15
2022-10-15T13:12:25.761Z,16.25
2022-10-15T13:17:34.966Z,23.15
2022-10-15T13:22:41.689Z,15.27
2022-10-15T13:27:48.053Z,17.63
2022-10-15T13:32:58.399Z,16.95
2022-10-15T13:38:06.345Z,15.57
2022-10-15T13:43:19.756Z,17.27
2022-10-15T13:48:30.923Z,13.95
2022-10-15T13:53:39.213Z,11.63
2022-10-15T13:58:48.052Z,13.57
2022-10-15T14:03:57.674Z,10.30
2022-10-15T14:09:19.940Z,12.82
2022-10-15T14:14:36.107Z,13.65
2022-10-15T14:19:51.504Z,15.18
2022-10-15T14:30:29.633Z,16.15
2022-10-15T14:35:39.547Z,22.15
2022-10-15T14:41:04.858Z,17.25
2022-10-15T14:46:21.111Z,15.30
2022-10-15T14:51:30.267Z,12.43
2022-10-15T14:56:36.958Z,11.82
2022-10-15T15:01:52.645Z,14.50
2022-10-15T15:07:00.421Z,13.90
2022-10-15T15:12:07.135Z,11.77
2022-10-15T15:24:25.799Z,12.30
2022-10-15T15:37:44.835Z,14.05
2022-10-15T15:42:52.619Z,14.18
2022-10-15T15:48:02.414Z,18.75
2022-10-15T15:53:09.063Z,16.98
2022-10-15T15:58:17.297Z,18.73
2022-10-15T16:03:24.182Z,20.48
2022-10-15T16:08:31.344Z,18.38
2022-10-15T16:13:41.173Z,18.83
2022-10-15T16:18:47.680Z,15.13
2022-10-15T16:23:54.252Z,18.77
2022-10-15T16:29:02.331Z,18.25
2022-10-15T16:34:09.198Z,30.60
2022-10-15T16:39:16.546Z,31.38
2022-10-15T16:44:24.397Z,43.10
2022-10-15T16:49:31.134Z,41.40
2022-10-15T16:54:39.032Z,33.83
2022-10-15T16:59:46.882Z,34.22
2022-10-15T17:04:53.606Z,40.03
2022-10-15T17:10:00.701Z,39.05
2022-10-15T17:15:12.717Z,35.42
2022-10-15T17:20:20.707Z,27.17
2022-10-15T17:25:29.654Z,26.65
2022-10-15T17:30:44.627Z,28.08
2022-10-15T17:35:59.261Z,22.00
2022-10-15T17:41:15.986Z,19.88
2022-10-15T17:46:31.455Z,20.83
2022-10-15T17:51:41.610Z,18.05
2022-10-15T17:56:49.489Z,19.98
2022-10-15T18:02:01.320Z,14.23
2022-10-15T18:07:15.086Z,16.75
2022-10-15T18:12:27.747Z,15.00
2022-10-15T18:17:37.547Z,15.82
2022-10-15T18:22:47.104Z,17.40
2022-10-15T18:27:54.935Z,17.50
2022-10-15T18:33:03.590Z,18.98
2022-10-15T18:38:10.563Z,15.95
2022-10-15T18:43:19.584Z,17.33
2022-10-15T18:48:32.807Z,19.08
2022-10-15T18:53:41.824Z,15.85
2022-10-15T18:58:57.355Z,19.23
2022-10-15T19:04:15.787Z,24.45
2022-10-15T19:09:31.202Z,22.33
2022-10-15T19:14:42.446Z,25.38
2022-10-15T19:19:54.871Z,23.58
2022-10-15T19:25:51.103Z,23.67
2022-10-15T19:31:08.776Z,20.60
2022-10-15T19:36:49.407Z,21.48
2022-10-15T19:41:58.051Z,23.05
2022-10-15T19:52:15.889Z,19.90
2022-10-15T19:57:24.224Z,18.15
2022-10-15T20:02:32.856Z,19.35
2022-10-15T20:12:51.419Z,18.63
2022-10-15T20:17:59.011Z,16.65
2022-10-15T20:23:08.221Z,19.40
2022-10-15T20:28:20.038Z,18.98
2022-10-15T20:33:32.538Z,16.15
2022-10-15T20:38:44.194Z,16.42
2022-10-15T20:43:57.932Z,16.17
2022-10-15T20:54:21.029Z,15.65
2022-10-15T20:59:30.264Z,16.90
2022-10-15T21:04:37.750Z,16.67
2022-10-15T21:09:46.630Z,19.30
2022-10-15T21:14:53.279Z,20.08
2022-10-15T21:19:59.385Z,17.15
2022-10-15T21:25:08.351Z,14.73
2022-10-15T21:30:15.006Z,15.80
2022-10-15T21:35:21.526Z,17.13
2022-10-15T21:40:30.498Z,17.20
2022-10-15T21:45:37.813Z,15.13
2022-10-15T21:50:49.275Z,17.00
2022-10-15T21:55:57.839Z,13.70
2022-10-15T22:01:14.537Z,17.92
2022-10-15T22:06:23.964Z,14.68
2022-10-15T22:11:35.645Z,15.60
2022-10-15T22:16:43.347Z,16.00
2022-10-15T22:21:51.229Z,12.23
2022-10-15T22:27:01.049Z,13.80
2022-10-15T22:32:07.464Z,14.27
2022-10-15T22:37:13.669Z,10.90
2022-10-15T22:42:21.204Z,13.90
2022-10-15T22:47:28.080Z,14.18
2022-10-15T22:52:34.165Z,12.25
2022-10-15T22:57:41.638Z,20.50
2022-10-15T23:02:47.797Z,15.88
2022-10-15T23:07:53.791Z,10.90
2022-10-15T23:13:01.196Z,10.05
2022-10-15T23:18:07.120Z,11.25
2022-10-15T23:23:13.110Z,11.18
2022-10-15T23:28:26.995Z,10.05
2022-10-15T23:33:35.579Z,10.02
2022-10-15T23:38:41.648Z,8.55
2022-10-15T23:43:50.153Z,9.25
2022-10-15T23:48:58.081Z,10.18
2022-10-15T23:54:06.256Z,10.63
2022-10-15T23:59:14.193Z,9.18
